Time;durP1;ratioP1;P1;durP2;ratioP2;P2;SDS_P1;SDS_P2;PMS_P1;PMS_P2;Temp;Humidity;BMP_temperature;BMP_pressure;BME280_temperature;BME280_humidity;BME280_pressure;Samples;Min_cycle;Max_cycle;Signal;HPM_P1;HPM_P2
2021/05/17 00:00:09;;;;;;;9.48;4.18;;;;;;;;;;5041520;28;20060;-86
2021/05/17 00:02:35;;;;;;;7.45;4.28;;;;;;;;;;5033030;28;20028;-85
2021/05/17 00:05:01;;;;;;;8.00;4.18;;;;;;;;;;5031316;28;20029;-85
2021/05/17 00:07:27;;;;;;;7.20;4.50;;;;;;;;;;5043541;28;20466;-85
2021/05/17 00:09:53;;;;;;;11.38;4.80;;;;;;;;;;5037250;28;20032;-85
2021/05/17 00:12:19;;;;;;;12.80;5.15;;;;;;;;;;5040858;28;20033;-87
2021/05/17 00:14:45;;;;;;;7.60;4.82;;;;;;;;;;5035153;28;20029;-86
2021/05/17 00:17:11;;;;;;;8.80;4.15;;;;;;;;;;5045885;28;20037;-84
2021/05/17 00:19:38;;;;;;;8.57;3.85;;;;;;;;;;5050910;28;20540;-87
2021/05/17 00:22:04;;;;;;;4.72;2.80;;;;;;;;;;5055661;28;20033;-86
2021/05/17 00:24:31;;;;;;;5.60;3.00;;;;;;;;;;5034897;28;20140;-86
2021/05/17 00:26:57;;;;;;;7.43;3.35;;;;;;;;;;5041167;28;20044;-87
2021/05/17 00:29:23;;;;;;;6.10;3.55;;;;;;;;;;5039500;28;20053;-86
2021/05/17 00:31:49;;;;;;;6.80;3.50;;;;;;;;;;5040304;28;20021;-86
2021/05/17 00:34:15;;;;;;;8.20;3.85;;;;;;;;;;5050835;28;20040;-86
2021/05/17 00:36:41;;;;;;;7.82;3.67;;;;;;;;;;5045080;28;20021;-86
2021/05/17 00:39:09;;;;;;;8.30;3.80;;;;;;;;;;5033161;28;20146;-87
2021/05/17 00:41:35;;;;;;;5.88;3.55;;;;;;;;;;5040694;28;20057;-87
2021/05/17 00:44:01;;;;;;;6.50;2.97;;;;;;;;;;5032600;28;20093;-86
2021/05/17 00:46:27;;;;;;;4.72;2.92;;;;;;;;;;5034589;28;20026;-87
2021/05/17 00:48:53;;;;;;;5.82;2.53;;;;;;;;;;5032883;28;20076;-87
2021/05/17 00:51:20;;;;;;;7.97;3.70;;;;;;;;;;5031931;28;20076;-87
2021/05/17 00:53:46;;;;;;;8.73;4.22;;;;;;;;;;5047485;28;20017;-84
2021/05/17 00:56:13;;;;;;;8.70;3.90;;;;;;;;;;5034307;28;20446;-87
2021/05/17 00:58:39;;;;;;;6.57;3.72;;;;;;;;;;5037555;28;20033;-87
2021/05/17 01:01:06;;;;;;;6.22;3.30;;;;;;;;;;5056524;28;20088;-87
2021/05/17 01:03:33;;;;;;;6.88;3.88;;;;;;;;;;5035475;28;20032;-84
2021/05/17 01:06:03;;;;;;;8.00;4.80;;;;;;;;;;5043496;28;20087;-87
2021/05/17 01:08:34;;;;;;;9.80;4.82;;;;;;;;;;5040194;28;20085;-87
2021/05/17 01:11:03;;;;;;;9.65;4.38;;;;;;;;;;5047538;28;20033;-87
2021/05/17 01:13:29;;;;;;;7.78;4.25;;;;;;;;;;5040507;28;20044;-83
2021/05/17 01:15:55;;;;;;;7.10;3.80;;;;;;;;;;5040316;28;20025;-87
2021/05/17 01:18:21;;;;;;;6.65;4.00;;;;;;;;;;5030913;28;20029;-87
2021/05/17 01:20:49;;;;;;;8.55;4.30;;;;;;;;;;5029782;28;20041;-86
2021/05/17 01:25:48;;;;;;;10.98;5.28;;;;;;;;;;5034015;28;20490;-87
2021/05/17 01:28:20;;;;;;;10.70;5.35;;;;;;;;;;5032427;28;20432;-87
2021/05/17 01:30:47;;;;;;;9.10;5.15;;;;;;;;;;5056141;28;20071;-83
2021/05/17 01:33:14;;;;;;;7.75;4.30;;;;;;;;;;5036850;28;20026;-87
2021/05/17 01:35:42;;;;;;;6.55;3.47;;;;;;;;;;5029839;28;20033;-87
2021/05/17 01:38:08;;;;;;;7.32;4.07;;;;;;;;;;5030260;28;20113;-87
2021/05/17 01:40:38;;;;;;;7.75;3.72;;;;;;;;;;5035581;28;20046;-86
2021/05/17 01:43:04;;;;;;;8.23;3.83;;;;;;;;;;5038523;28;20026;-86
2021/05/17 01:45:30;;;;;;;6.05;3.38;;;;;;;;;;5037893;28;20040;-86
2021/05/17 01:47:58;;;;;;;6.18;3.38;;;;;;;;;;5037656;28;20033;-87
2021/05/17 01:50:24;;;;;;;9.07;3.50;;;;;;;;;;5032661;28;20482;-87
2021/05/17 01:52:51;;;;;;;6.60;3.58;;;;;;;;;;5038952;28;20493;-86
2021/05/17 01:55:17;;;;;;;7.13;3.50;;;;;;;;;;5035255;28;20026;-86
2021/05/17 01:57:43;;;;;;;5.30;2.55;;;;;;;;;;5031553;28;20030;-86
2021/05/17 02:00:10;;;;;;;10.25;3.40;;;;;;;;;;5030587;28;20041;-87
2021/05/17 02:02:37;;;;;;;4.65;2.33;;;;;;;;;;5034004;28;20036;-86
2021/05/17 02:05:03;;;;;;;83.28;3.78;;;;;;;;;;5042426;28;20022;-87
2021/05/17 02:07:29;;;;;;;174.45;7.18;;;;;;;;;;5038825;28;20035;-86
2021/05/17 02:09:55;;;;;;;23.38;4.53;;;;;;;;;;5039295;28;20022;-86
2021/05/17 02:12:22;;;;;;;11.68;3.88;;;;;;;;;;5039147;28;20328;-86
2021/05/17 02:14:55;;;;;;;9.93;4.93;;;;;;;;;;5035145;28;20032;-86
2021/05/17 02:17:23;;;;;;;9.80;4.45;;;;;;;;;;5034577;28;20034;-86
2021/05/17 02:19:49;;;;;;;9.27;5.35;;;;;;;;;;5036760;28;20091;-86
2021/05/17 02:22:19;;;;;;;7.82;4.15;;;;;;;;;;5037789;28;20077;-87
2021/05/17 02:24:46;;;;;;;7.72;3.90;;;;;;;;;;5074395;28;20033;-86
2021/05/17 02:27:12;;;;;;;7.78;4.63;;;;;;;;;;5033420;28;20029;-86
2021/05/17 02:29:39;;;;;;;10.13;4.75;;;;;;;;;;5037049;28;20072;-86
2021/05/17 02:32:05;;;;;;;8.73;3.60;;;;;;;;;;5028937;28;20025;-86
2021/05/17 02:34:31;;;;;;;6.57;2.97;;;;;;;;;;5040422;28;20032;-86
2021/05/17 02:36:57;;;;;;;6.85;3.30;;;;;;;;;;5056968;28;20026;-86
2021/05/17 02:39:23;;;;;;;6.95;3.58;;;;;;;;;;5041439;28;20053;-86
2021/05/17 02:41:50;;;;;;;9.27;3.83;;;;;;;;;;5039564;28;20037;-85
2021/05/17 02:44:16;;;;;;;8.73;3.67;;;;;;;;;;5044575;28;20375;-86
2021/05/17 02:46:42;;;;;;;85.38;4.00;;;;;;;;;;5038340;28;20026;-85
2021/05/17 02:49:09;;;;;;;5.35;2.65;;;;;;;;;;5058376;28;20026;-86
2021/05/17 02:51:35;;;;;;;30.88;5.25;;;;;;;;;;5038681;28;20028;-86
2021/05/17 02:54:15;;;;;;;8.52;4.68;;;;;;;;;;5043949;28;20030;-86
2021/05/17 02:56:58;;;;;;;5.03;2.30;;;;;;;;;;5034354;28;20108;-86
2021/05/17 02:59:30;;;;;;;8.02;3.00;;;;;;;;;;5029753;28;20041;-86
2021/05/17 03:01:59;;;;;;;6.43;3.08;;;;;;;;;;5037233;28;20028;-86
2021/05/17 03:04:26;;;;;;;7.07;3.35;;;;;;;;;;5043258;28;20021;-86
2021/05/17 03:06:59;;;;;;;8.23;3.08;;;;;;;;;;5037449;28;20092;-86
2021/05/17 03:09:26;;;;;;;7.93;2.78;;;;;;;;;;5031659;28;20453;-86
2021/05/17 03:11:53;;;;;;;6.72;2.10;;;;;;;;;;5041676;28;20053;-86
2021/05/17 03:14:19;;;;;;;7.60;2.80;;;;;;;;;;5027805;28;20083;-86
2021/05/17 03:16:47;;;;;;;4.93;2.20;;;;;;;;;;5034325;28;20393;-86
2021/05/17 03:19:13;;;;;;;6.00;2.30;;;;;;;;;;5031524;28;20022;-85
2021/05/17 03:21:39;;;;;;;8.25;1.88;;;;;;;;;;5034976;28;20025;-85
2021/05/17 03:24:06;;;;;;;5.57;1.80;;;;;;;;;;5028625;28;20025;-85
2021/05/17 03:26:32;;;;;;;8.85;2.17;;;;;;;;;;5033421;28;20109;-85
2021/05/17 03:28:58;;;;;;;5.05;2.08;;;;;;;;;;5050563;28;20025;-85
2021/05/17 03:31:24;;;;;;;3.58;1.52;;;;;;;;;;5040201;28;20029;-85
2021/05/17 03:33:50;;;;;;;4.85;1.77;;;;;;;;;;5038814;28;20037;-85
2021/05/17 03:36:16;;;;;;;6.20;2.28;;;;;;;;;;5040141;28;20115;-85
2021/05/17 03:38:43;;;;;;;5.80;1.90;;;;;;;;;;5028365;28;20513;-86
2021/05/17 03:41:09;;;;;;;5.05;1.85;;;;;;;;;;5039158;28;20061;-86
2021/05/17 03:43:35;;;;;;;3.38;1.90;;;;;;;;;;5035500;28;20026;-85
2021/05/17 03:46:01;;;;;;;3.47;1.80;;;;;;;;;;5048552;28;20030;-86
2021/05/17 03:48:27;;;;;;;7.53;1.60;;;;;;;;;;5032943;28;20104;-85
2021/05/17 03:50:53;;;;;;;3.20;1.30;;;;;;;;;;5035123;28;20025;-86
2021/05/17 03:53:20;;;;;;;2.55;1.40;;;;;;;;;;5048284;28;20030;-86
2021/05/17 03:55:46;;;;;;;4.45;1.30;;;;;;;;;;5039425;28;20054;-86
2021/05/17 03:58:12;;;;;;;3.53;1.33;;;;;;;;;;5050825;28;20025;-86
2021/05/17 04:00:38;;;;;;;4.28;1.90;;;;;;;;;;5048621;28;20524;-87
2021/05/17 04:03:12;;;;;;;5.78;1.90;;;;;;;;;;5038869;28;20025;-86
2021/05/17 04:05:55;;;;;;;40.97;2.70;;;;;;;;;;5051144;28;20097;-87
2021/05/17 04:13:40;;;;;;;4.13;1.90;;;;;;;;;;5046430;28;20052;-87
2021/05/17 04:16:07;;;;;;;4.00;2.22;;;;;;;;;;5045542;28;20033;-88
2021/05/17 04:18:33;;;;;;;6.22;1.75;;;;;;;;;;5043386;28;20037;-88
2021/05/17 04:20:59;;;;;;;4.47;1.73;;;;;;;;;;5042522;28;20037;-87
2021/05/17 04:23:25;;;;;;;10.15;1.90;;;;;;;;;;5044966;28;20014;-87
2021/05/17 04:25:52;;;;;;;5.38;1.58;;;;;;;;;;5050936;28;20036;-87
2021/05/17 04:28:18;;;;;;;6.00;1.65;;;;;;;;;;5051908;28;20025;-87
2021/05/17 04:30:44;;;;;;;10.73;1.67;;;;;;;;;;5051915;28;20036;-87
2021/05/17 04:33:10;;;;;;;6.45;1.52;;;;;;;;;;5032309;28;20032;-87
2021/05/17 04:35:36;;;;;;;5.97;1.35;;;;;;;;;;5032792;28;20286;-87
2021/05/17 04:38:02;;;;;;;4.22;1.35;;;;;;;;;;5029283;28;20069;-88
2021/05/17 04:40:29;;;;;;;4.93;1.40;;;;;;;;;;5032695;28;20451;-88
2021/05/17 04:42:55;;;;;;;3.40;1.58;;;;;;;;;;5035884;28;20382;-88
2021/05/17 04:45:24;;;;;;;5.03;1.30;;;;;;;;;;5034861;28;20030;-86
2021/05/17 04:47:53;;;;;;;9.63;1.60;;;;;;;;;;5043069;28;20017;-88
2021/05/17 04:50:19;;;;;;;7.30;1.30;;;;;;;;;;5040030;28;20080;-88
2021/05/17 04:52:45;;;;;;;3.50;1.50;;;;;;;;;;5037499;28;20022;-88
2021/05/17 04:55:11;;;;;;;6.65;1.50;;;;;;;;;;5040722;28;20025;-88
2021/05/17 04:57:37;;;;;;;5.07;1.45;;;;;;;;;;5048913;28;20028;-86
2021/05/17 05:00:04;;;;;;;5.00;1.35;;;;;;;;;;5067262;28;20041;-85
2021/05/17 05:02:30;;;;;;;9.32;1.50;;;;;;;;;;5031095;28;20022;-87
2021/05/17 05:04:56;;;;;;;4.97;1.20;;;;;;;;;;5029410;28;20108;-85
2021/05/17 05:07:22;;;;;;;5.95;2.30;;;;;;;;;;5024332;28;20013;-87
2021/05/17 05:09:48;;;;;;;7.85;1.60;;;;;;;;;;5045871;28;20049;-87
2021/05/17 05:12:14;;;;;;;3.63;1.40;;;;;;;;;;5023484;28;20471;-87
2021/05/17 05:14:40;;;;;;;6.63;1.33;;;;;;;;;;5047068;28;20022;-87
2021/05/17 05:17:06;;;;;;;3.53;1.40;;;;;;;;;;5038923;28;20194;-85
2021/05/17 05:19:32;;;;;;;4.30;1.90;;;;;;;;;;5030487;28;20071;-87
2021/05/17 05:21:58;;;;;;;6.15;1.63;;;;;;;;;;5039506;28;20029;-88
2021/05/17 05:24:25;;;;;;;3.00;1.70;;;;;;;;;;5039407;28;20104;-88
2021/05/17 05:32:19;;;;;;;7.07;1.63;;;;;;;;;;5041747;28;20110;-85
2021/05/17 05:34:46;;;;;;;5.80;1.70;;;;;;;;;;5026124;28;20036;-87
2021/05/17 05:37:11;;;;;;;6.55;1.52;;;;;;;;;;5037345;28;20040;-85
2021/05/17 05:39:37;;;;;;;6.32;1.77;;;;;;;;;;5030265;28;20120;-87
2021/05/17 05:42:04;;;;;;;4.65;1.80;;;;;;;;;;5039971;28;20507;-87
2021/05/17 05:44:32;;;;;;;62.58;3.25;;;;;;;;;;5036194;28;20043;-87
2021/05/17 05:46:58;;;;;;;4.25;1.02;;;;;;;;;;5037557;28;20052;-87
2021/05/17 05:49:24;;;;;;;19.77;1.60;;;;;;;;;;5033356;28;20067;-87
2021/05/17 05:51:51;;;;;;;3.78;0.90;;;;;;;;;;5033889;28;20041;-85
2021/05/17 05:54:17;;;;;;;10.27;1.17;;;;;;;;;;5042965;28;20104;-85
2021/05/17 05:56:43;;;;;;;2.30;0.80;;;;;;;;;;5039491;28;20052;-88
2021/05/17 05:59:09;;;;;;;2.67;1.17;;;;;;;;;;5031216;28;20460;-87
2021/05/17 06:01:35;;;;;;;5.03;1.50;;;;;;;;;;5036024;28;20146;-86
2021/05/17 06:04:01;;;;;;;2.80;0.80;;;;;;;;;;5055953;28;20035;-86
2021/05/17 06:06:27;;;;;;;4.28;0.60;;;;;;;;;;5029711;28;20136;-87
2021/05/17 06:08:53;;;;;;;1.98;0.80;;;;;;;;;;5032959;28;20056;-87
2021/05/17 06:11:19;;;;;;;3.53;0.70;;;;;;;;;;5053535;28;20022;-87
2021/05/17 06:13:48;;;;;;;7.25;0.80;;;;;;;;;;5043646;28;20021;-87
2021/05/17 06:16:13;;;;;;;;;;;;;;;;;;5034088;28;20029;-85
2021/05/17 06:18:40;;;;;;;4.57;0.50;;;;;;;;;;5050002;28;19905;-87
2021/05/17 06:21:06;;;;;;;3.72;0.95;;;;;;;;;;5029529;28;20126;-90
2021/05/17 06:23:32;;;;;;;3.60;1.25;;;;;;;;;;5032249;28;20141;-87
2021/05/17 06:25:58;;;;;;;4.78;1.20;;;;;;;;;;5032194;28;20104;-87
2021/05/17 06:28:27;;;;;;;5.10;1.77;;;;;;;;;;5038830;28;20073;-87
2021/05/17 06:30:58;;;;;;;3.78;1.92;;;;;;;;;;5052389;28;20440;-86
2021/05/17 06:33:24;;;;;;;4.22;1.45;;;;;;;;;;5041433;28;20033;-86
2021/05/17 06:35:55;;;;;;;4.22;1.33;;;;;;;;;;5031828;28;20370;-87
2021/05/17 06:38:22;;;;;;;1.73;0.80;;;;;;;;;;5029487;28;20037;-87
2021/05/17 06:40:48;;;;;;;3.38;0.75;;;;;;;;;;5028958;28;20045;-87
2021/05/17 06:43:15;;;;;;;3.25;0.80;;;;;;;;;;5040135;28;20026;-87
2021/05/17 06:45:41;;;;;;;1.33;0.70;;;;;;;;;;5053847;28;20498;-87
2021/05/17 06:48:08;;;;;;;6.40;0.93;;;;;;;;;;5036754;28;20025;-87
2021/05/17 06:50:34;;;;;;;3.58;1.33;;;;;;;;;;5034239;28;20025;-85
2021/05/17 06:53:00;;;;;;;4.80;1.23;;;;;;;;;;5030250;28;20080;-87
2021/05/17 06:55:34;;;;;;;4.43;1.70;;;;;;;;;;5032100;28;20029;-88
2021/05/17 06:58:08;;;;;;;5.07;1.10;;;;;;;;;;5055869;28;20108;-87
2021/05/17 07:00:34;;;;;;;0.95;0.60;;;;;;;;;;5037497;28;20071;-87
2021/05/17 07:03:02;;;;;;;3.78;1.00;;;;;;;;;;5022796;28;20044;-86
2021/05/17 07:05:28;;;;;;;4.70;0.70;;;;;;;;;;5045728;28;20018;-86
2021/05/17 07:13:08;;;;;;;3.03;0.90;;;;;;;;;;5022701;28;20521;-86
2021/05/17 07:15:34;;;;;;;6.90;0.80;;;;;;;;;;5028667;28;20033;-86
2021/05/17 07:18:00;;;;;;;3.92;0.75;;;;;;;;;;5041147;28;20026;-84
2021/05/17 07:23:37;;;;;;;5.40;0.70;;;;;;;;;;5046670;28;20459;-84
2021/05/17 07:25:59;;;;;;;3.85;0.70;;;;;;;;;;5016135;28;20041;-85
2021/05/17 07:28:25;;;;;;;5.38;0.70;;;;;;;;;;5036203;28;20026;-87
2021/05/17 07:30:51;;;;;;;4.97;0.80;;;;;;;;;;5032595;28;20601;-87
2021/05/17 07:33:18;;;;;;;2.03;0.60;;;;;;;;;;5038901;28;20017;-84
2021/05/17 07:35:44;;;;;;;2.13;0.68;;;;;;;;;;5035256;28;20108;-87
2021/05/17 07:38:10;;;;;;;4.25;0.60;;;;;;;;;;5028320;28;20391;-85
2021/05/17 07:40:36;;;;;;;3.65;0.60;;;;;;;;;;5030443;28;20048;-87
2021/05/17 07:43:03;;;;;;;2.80;0.40;;;;;;;;;;5032114;28;20030;-85
2021/05/17 07:45:29;;;;;;;1.80;0.47;;;;;;;;;;5045161;28;20430;-85
2021/05/17 07:47:55;;;;;;;1.88;0.40;;;;;;;;;;5045436;28;20033;-85
2021/05/17 07:50:22;;;;;;;2.97;0.50;;;;;;;;;;5035103;28;20482;-85
2021/05/17 07:52:48;;;;;;;1.92;0.50;;;;;;;;;;5029804;28;20025;-84
2021/05/17 07:55:21;;;;;;;3.35;0.57;;;;;;;;;;5033398;28;20386;-86
2021/05/17 07:57:48;;;;;;;3.25;0.50;;;;;;;;;;5030300;28;20072;-87
2021/05/17 08:00:14;;;;;;;2.38;0.47;;;;;;;;;;5043989;28;20029;-84
2021/05/17 08:02:40;;;;;;;2.70;0.40;;;;;;;;;;5037888;28;20044;-86
2021/05/17 08:05:07;;;;;;;1.58;0.50;;;;;;;;;;5038848;28;20017;-87
2021/05/17 08:07:36;;;;;;;4.13;0.60;;;;;;;;;;5031551;28;20104;-85
2021/05/17 08:10:02;;;;;;;4.18;0.90;;;;;;;;;;5047946;28;20025;-86
2021/05/17 08:12:28;;;;;;;1.98;0.45;;;;;;;;;;5029521;28;20440;-86
2021/05/17 08:14:54;;;;;;;2.05;0.50;;;;;;;;;;5038553;28;20022;-87
2021/05/17 08:17:20;;;;;;;1.73;0.75;;;;;;;;;;5033519;28;20035;-87
2021/05/17 08:19:46;;;;;;;3.55;0.90;;;;;;;;;;5031349;28;20398;-87
2021/05/17 08:22:12;;;;;;;3.60;0.98;;;;;;;;;;5036032;28;20025;-87
2021/05/17 08:24:39;;;;;;;7.15;0.75;;;;;;;;;;5032386;28;20034;-87
2021/05/17 08:27:05;;;;;;;1.45;0.75;;;;;;;;;;5032204;28;20057;-86
2021/05/17 08:29:36;;;;;;;4.50;0.50;;;;;;;;;;5032035;28;20460;-85
2021/05/17 08:32:03;;;;;;;1.80;0.50;;;;;;;;;;5030402;28;20018;-86
2021/05/17 08:34:29;;;;;;;1.98;0.68;;;;;;;;;;5035370;28;20456;-86
2021/05/17 08:36:59;;;;;;;1.67;0.80;;;;;;;;;;5042286;28;20052;-86
2021/05/17 08:39:25;;;;;;;0.82;0.50;;;;;;;;;;5041516;28;20053;-86
2021/05/17 08:41:51;;;;;;;2.35;0.40;;;;;;;;;;5032090;28;20025;-86
2021/05/17 08:44:17;;;;;;;2.10;0.38;;;;;;;;;;5032464;28;20033;-86
2021/05/17 08:46:47;;;;;;;0.30;0.30;;;;;;;;;;5038110;28;20022;-85
2021/05/17 08:49:14;;;;;;;1.55;0.30;;;;;;;;;;5037397;28;20029;-86
2021/05/17 08:51:39;;;;;;;0.40;0.22;;;;;;;;;;5044256;28;20116;-86
2021/05/17 08:54:07;;;;;;;1.13;0.20;;;;;;;;;;5027846;28;20064;-86
2021/05/17 08:56:33;;;;;;;1.45;0.20;;;;;;;;;;5037821;28;20052;-86
2021/05/17 08:59:00;;;;;;;0.50;0.20;;;;;;;;;;5024099;28;20108;-86
2021/05/17 09:01:27;;;;;;;0.15;0.13;;;;;;;;;;5023954;28;20040;-85
2021/05/17 09:03:59;;;;;;;1.10;0.20;;;;;;;;;;5027923;28;20033;-86
2021/05/17 09:06:38;;;;;;;0.10;0.10;;;;;;;;;;5029914;28;20034;-85
2021/05/17 09:09:05;;;;;;;0.20;0.20;;;;;;;;;;5026398;28;20427;-85
2021/05/17 09:11:33;;;;;;;0.98;0.85;;;;;;;;;;5029999;28;20044;-86
2021/05/17 09:14:12;;;;;;;0.80;0.13;;;;;;;;;;5032157;28;20470;-87
2021/05/17 09:16:45;;;;;;;1.38;0.30;;;;;;;;;;5039708;28;20052;-89
2021/05/17 09:19:12;;;;;;;0.35;0.20;;;;;;;;;;5048772;28;20360;-90
2021/05/17 09:21:57;;;;;;;1.55;0.40;;;;;;;;;;5042804;28;20048;-91
2021/05/17 09:24:36;;;;;;;0.05;0.05;;;;;;;;;;5034905;28;20040;-93
2021/05/17 09:27:03;;;;;;;2.20;0.20;;;;;;;;;;5045368;28;20070;-95
2021/05/17 09:29:29;;;;;;;5.53;1.20;;;;;;;;;;5053570;28;20028;-93
2021/05/17 09:31:55;;;;;;;3.35;0.85;;;;;;;;;;5051523;28;20006;-95
2021/05/17 09:34:33;;;;;;;1.95;0.45;;;;;;;;;;5041953;28;20047;-95
2021/05/17 09:36:59;;;;;;;0.55;0.20;;;;;;;;;;5051845;22;20026;-63
2021/05/17 09:39:25;;;;;;;1.42;0.40;;;;;;;;;;5001155;28;20042;-64
2021/05/17 09:41:56;;;;;;;2.10;0.30;;;;;;;;;;5001947;28;20030;-64
2021/05/17 09:44:29;;;;;;;1.75;0.30;;;;;;;;;;5004864;28;20109;-64
2021/05/17 09:46:58;;;;;;;0.10;0.10;;;;;;;;;;5000141;28;20014;-64
2021/05/17 09:49:35;;;;;;;2.00;0.10;;;;;;;;;;5010864;28;20022;-62
2021/05/17 09:52:15;;;;;;;1.50;0.20;;;;;;;;;;5028062;28;20041;-64
2021/05/17 09:54:56;;;;;;;0.10;0.10;;;;;;;;;;5010851;28;20037;-61
2021/05/17 09:57:31;;;;;;;0.88;0.20;;;;;;;;;;5007673;28;20022;-61
2021/05/17 09:59:59;;;;;;;1.90;0.20;;;;;;;;;;5008586;28;20026;-63
2021/05/17 10:02:26;;;;;;;0.15;0.15;;;;;;;;;;5007744;28;20029;-61
2021/05/17 10:04:52;;;;;;;0.10;0.10;;;;;;;;;;5008306;28;20030;-61
2021/05/17 10:07:18;;;;;;;0.80;0.10;;;;;;;;;;5010327;28;20149;-61
2021/05/17 10:09:44;;;;;;;1.95;0.20;;;;;;;;;;5009334;28;20033;-61
2021/05/17 10:12:11;;;;;;;0.73;0.20;;;;;;;;;;5008586;28;20084;-61
2021/05/17 10:14:37;;;;;;;0.10;0.10;;;;;;;;;;5008596;28;20026;-61
2021/05/17 10:17:04;;;;;;;0.00;0.00;;;;;;;;;;5008517;28;20037;-63
2021/05/17 10:19:30;;;;;;;0.10;0.10;;;;;;;;;;5010887;28;20034;-61
2021/05/17 10:21:56;;;;;;;1.65;0.20;;;;;;;;;;5011589;28;20396;-62
2021/05/17 10:24:22;;;;;;;0.40;0.17;;;;;;;;;;5008812;28;20025;-62
2021/05/17 10:26:49;;;;;;;1.20;0.28;;;;;;;;;;5008201;28;20374;-62
2021/05/17 10:29:15;;;;;;;0.75;0.20;;;;;;;;;;5007739;28;20044;-62
2021/05/17 10:31:54;;;;;;;0.20;0.10;;;;;;;;;;5009106;28;20034;-62
2021/05/17 10:34:20;;;;;;;1.85;0.20;;;;;;;;;;5007761;28;20032;-62
2021/05/17 10:36:46;;;;;;;0.40;0.20;;;;;;;;;;5009042;28;20025;-62
2021/05/17 10:39:12;;;;;;;0.88;0.20;;;;;;;;;;5007518;28;20049;-62
2021/05/17 10:42:00;;;;;;;0.32;0.10;;;;;;;;;;5008305;28;20140;-62
2021/05/17 10:46:53;;;;;;;1.38;0.20;;;;;;;;;;5007939;28;20060;-62
2021/05/17 10:49:22;;;;;;;0.53;0.30;;;;;;;;;;5007547;28;20026;-62
2021/05/17 10:51:49;;;;;;;0.85;0.20;;;;;;;;;;5005599;28;20212;-62
2021/05/17 10:54:25;;;;;;;0.10;0.10;;;;;;;;;;5008078;28;20030;-62
2021/05/17 10:56:57;;;;;;;2.97;0.30;;;;;;;;;;5007126;28;20029;-63
2021/05/17 11:02:15;;;;;;;0.90;0.20;;;;;;;;;;4996507;28;20164;-62
2021/05/17 11:04:41;;;;;;;0.63;0.13;;;;;;;;;;5008714;28;20087;-62
2021/05/17 11:07:10;;;;;;;1.38;0.10;;;;;;;;;;5010760;28;20586;-62
2021/05/17 11:10:03;;;;;;;0.95;0.17;;;;;;;;;;5039356;28;20485;-62
2021/05/17 11:12:29;;;;;;;0.10;0.10;;;;;;;;;;5001811;28;20037;-62
2021/05/17 11:15:05;;;;;;;3.10;0.15;;;;;;;;;;5008122;28;20026;-62
2021/05/17 11:17:31;;;;;;;0.90;0.20;;;;;;;;;;5007563;28;20018;-62
2021/05/17 11:19:57;;;;;;;0.28;0.20;;;;;;;;;;5008557;28;20121;-62
2021/05/17 11:22:46;;;;;;;1.00;0.25;;;;;;;;;;5008103;28;20022;-62
2021/05/17 11:25:12;;;;;;;0.40;0.10;;;;;;;;;;5009968;28;20057;-62
2021/05/17 11:27:48;;;;;;;0.70;0.10;;;;;;;;;;5006682;28;20044;-62
2021/05/17 11:30:32;;;;;;;1.55;0.20;;;;;;;;;;5006910;28;20033;-62
2021/05/17 11:33:18;;;;;;;1.75;0.20;;;;;;;;;;5006634;28;20064;-62
2021/05/17 11:36:14;;;;;;;0.77;0.10;;;;;;;;;;5007622;28;20380;-62
2021/05/17 11:38:59;;;;;;;0.75;0.20;;;;;;;;;;5007181;28;20046;-62
2021/05/17 11:41:28;;;;;;;0.10;0.10;;;;;;;;;;5007627;28;20396;-62
2021/05/17 11:43:58;;;;;;;0.82;0.22;;;;;;;;;;5007513;28;20014;-62
2021/05/17 11:46:25;;;;;;;0.20;0.20;;;;;;;;;;5010185;28;20030;-62
2021/05/17 11:48:51;;;;;;;0.10;0.10;;;;;;;;;;5009185;28;20454;-62
2021/05/17 11:51:17;;;;;;;0.10;0.10;;;;;;;;;;5013029;28;20026;-62
2021/05/17 11:53:46;;;;;;;0.05;0.05;;;;;;;;;;5011121;28;20112;-62
2021/05/17 11:56:12;;;;;;;0.45;0.10;;;;;;;;;;5011490;28;20045;-62
2021/05/17 11:58:38;;;;;;;1.20;0.25;;;;;;;;;;5012174;28;20508;-62
2021/05/17 12:01:18;;;;;;;5.30;0.20;;;;;;;;;;5013722;28;20038;-62
2021/05/17 12:03:44;;;;;;;0.55;0.10;;;;;;;;;;5012624;28;20061;-62
2021/05/17 12:06:10;;;;;;;0.28;0.10;;;;;;;;;;5011451;28;20030;-62
2021/05/17 12:08:39;;;;;;;0.65;0.05;;;;;;;;;;5010715;28;20463;-63
2021/05/17 12:11:12;;;;;;;1.33;0.10;;;;;;;;;;5011011;28;20037;-64
2021/05/17 12:13:47;;;;;;;0.00;0.00;;;;;;;;;;5011918;28;20085;-64
2021/05/17 12:16:23;;;;;;;0.35;0.10;;;;;;;;;;5010759;28;20489;-62
2021/05/17 12:18:59;;;;;;;2.65;0.10;;;;;;;;;;5013541;28;20030;-62
2021/05/17 12:21:30;;;;;;;0.10;0.10;;;;;;;;;;5012363;28;20275;-62
2021/05/17 12:23:56;;;;;;;0.43;0.15;;;;;;;;;;5010993;28;20022;-62
2021/05/17 12:26:22;;;;;;;0.10;0.10;;;;;;;;;;5010805;28;20032;-62
2021/05/17 12:28:56;;;;;;;0.10;0.10;;;;;;;;;;5010820;28;20033;-61
2021/05/17 12:31:23;;;;;;;0.25;0.20;;;;;;;;;;5013074;28;20512;-63
2021/05/17 12:33:49;;;;;;;0.98;0.10;;;;;;;;;;5011773;28;20025;-61
2021/05/17 12:36:15;;;;;;;0.00;0.00;;;;;;;;;;5010523;28;20026;-62
2021/05/17 12:38:45;;;;;;;1.05;0.10;;;;;;;;;;5010075;28;20046;-63
2021/05/17 12:41:31;;;;;;;0.43;0.20;;;;;;;;;;5010556;28;20046;-63
2021/05/17 12:43:56;;;;;;;0.10;0.10;;;;;;;;;;4996349;28;20022;-63
2021/05/17 12:46:27;;;;;;;0.63;0.28;;;;;;;;;;5012836;28;20431;-62
2021/05/17 12:48:54;;;;;;;0.70;0.28;;;;;;;;;;5011552;28;20053;-63
2021/05/17 12:51:28;;;;;;;0.10;0.10;;;;;;;;;;5044001;28;20481;-64
2021/05/17 12:53:56;;;;;;;0.20;0.20;;;;;;;;;;5010114;28;20469;-61
2021/05/17 12:56:24;;;;;;;0.40;0.17;;;;;;;;;;5009894;28;20481;-61
2021/05/17 12:58:50;;;;;;;2.17;0.20;;;;;;;;;;5010077;28;20030;-61
2021/05/17 13:01:17;;;;;;;0.20;0.17;;;;;;;;;;5012217;28;20065;-61
2021/05/17 13:03:45;;;;;;;0.35;0.15;;;;;;;;;;5010756;28;20088;-62
2021/05/17 13:06:11;;;;;;;;;;;;;;;;;;5009260;28;20363;-61
2021/05/17 13:08:37;;;;;;;0.10;0.10;;;;;;;;;;5041544;28;19927;-61
2021/05/17 13:11:03;;;;;;;1.75;0.10;;;;;;;;;;5009666;28;20034;-63
2021/05/17 13:13:41;;;;;;;0.22;0.10;;;;;;;;;;5011661;28;20140;-61
2021/05/17 13:16:12;;;;;;;0.63;0.20;;;;;;;;;;5012487;28;20057;-61
2021/05/17 13:19:00;;;;;;;0.00;0.00;;;;;;;;;;5009966;28;20037;-61
2021/05/17 13:21:56;;;;;;;0.10;0.10;;;;;;;;;;5011919;28;20041;-61
2021/05/17 13:32:42;;;;;;;0.38;0.10;;;;;;;;;;5010054;28;20511;-59
2021/05/17 13:35:10;;;;;;;0.25;0.10;;;;;;;;;;5009914;28;20021;-59
2021/05/17 13:37:36;;;;;;;0.45;0.17;;;;;;;;;;5010272;28;20045;-60
2021/05/17 13:40:04;;;;;;;0.40;0.10;;;;;;;;;;5011033;28;20034;-59
2021/05/17 13:42:31;;;;;;;3.30;0.20;;;;;;;;;;5009264;28;20029;-59
2021/05/17 13:44:57;;;;;;;0.10;0.08;;;;;;;;;;5009299;28;20057;-60
2021/05/17 13:47:23;;;;;;;0.10;0.10;;;;;;;;;;5009278;28;20474;-59
2021/05/17 13:49:49;;;;;;;0.10;0.10;;;;;;;;;;5010768;28;20030;-59
2021/05/17 13:52:15;;;;;;;0.10;0.10;;;;;;;;;;5011953;28;20022;-59
2021/05/17 13:54:41;;;;;;;0.15;0.15;;;;;;;;;;5010788;28;20029;-59
2021/05/17 13:57:09;;;;;;;0.20;0.20;;;;;;;;;;5009187;28;20060;-59
2021/05/17 13:59:35;;;;;;;0.30;0.28;;;;;;;;;;5008727;28;20018;-61
2021/05/17 14:02:03;;;;;;;0.73;0.20;;;;;;;;;;5008783;28;20508;-59
2021/05/17 14:04:29;;;;;;;0.30;0.00;;;;;;;;;;5011282;28;20384;-59
2021/05/17 14:06:55;;;;;;;1.75;0.30;;;;;;;;;;5010241;28;20037;-60
2021/05/17 14:09:21;;;;;;;0.15;0.10;;;;;;;;;;5008254;28;20061;-60
2021/05/17 14:11:47;;;;;;;0.55;0.20;;;;;;;;;;5008250;28;20466;-59
2021/05/17 14:14:14;;;;;;;1.45;0.15;;;;;;;;;;5008462;28;20045;-60
2021/05/17 14:16:40;;;;;;;0.15;0.10;;;;;;;;;;5009706;28;20022;-60
2021/05/17 14:19:07;;;;;;;0.20;0.10;;;;;;;;;;5011090;28;20030;-60
2021/05/17 14:21:33;;;;;;;0.20;0.10;;;;;;;;;;5009805;28;20048;-60
2021/05/17 14:23:59;;;;;;;0.30;0.08;;;;;;;;;;5008026;28;20021;-60
2021/05/17 14:26:25;;;;;;;0.30;0.30;;;;;;;;;;5008325;28;20022;-59
2021/05/17 14:28:51;;;;;;;0.10;0.10;;;;;;;;;;5008544;28;20025;-59
2021/05/17 14:31:19;;;;;;;0.65;0.10;;;;;;;;;;5010770;28;20129;-60
2021/05/17 14:33:45;;;;;;;0.03;0.03;;;;;;;;;;5008706;28;20457;-59
2021/05/17 14:36:12;;;;;;;1.17;0.20;;;;;;;;;;5007910;28;20128;-60
2021/05/17 14:38:38;;;;;;;0.60;0.20;;;;;;;;;;5008370;28;20452;-60
2021/05/17 14:41:05;;;;;;;0.57;0.10;;;;;;;;;;5006001;28;20137;-59
2021/05/17 14:43:31;;;;;;;0.88;0.30;;;;;;;;;;5009029;28;20069;-59
2021/05/17 14:45:58;;;;;;;0.25;0.15;;;;;;;;;;5008766;28;20117;-59
2021/05/17 14:48:25;;;;;;;0.20;0.10;;;;;;;;;;5007860;28;20065;-60
2021/05/17 14:50:51;;;;;;;0.80;0.20;;;;;;;;;;5004440;28;20030;-59
2021/05/17 14:53:17;;;;;;;0.25;0.20;;;;;;;;;;5001882;28;20021;-59
2021/05/17 14:55:43;;;;;;;0.68;0.20;;;;;;;;;;5007532;28;20418;-60
2021/05/17 14:58:09;;;;;;;0.98;0.25;;;;;;;;;;5008324;28;20465;-59
2021/05/17 15:00:35;;;;;;;0.30;0.20;;;;;;;;;;5003932;28;20034;-60
2021/05/17 15:03:02;;;;;;;0.40;0.10;;;;;;;;;;5004153;28;20073;-59
2021/05/17 15:05:28;;;;;;;0.73;0.17;;;;;;;;;;5006959;28;20168;-60
2021/05/17 15:07:56;;;;;;;0.40;0.30;;;;;;;;;;5005632;28;20549;-60
2021/05/17 15:10:22;;;;;;;0.60;0.10;;;;;;;;;;5009622;28;20477;-59
2021/05/17 15:12:49;;;;;;;0.52;0.20;;;;;;;;;;5008593;28;20033;-58
2021/05/17 15:15:16;;;;;;;0.52;0.20;;;;;;;;;;5007236;28;20042;-60
2021/05/17 15:17:42;;;;;;;0.65;0.20;;;;;;;;;;5008023;28;20018;-58
2021/05/17 15:20:08;;;;;;;0.28;0.20;;;;;;;;;;5009604;28;20065;-58
2021/05/17 15:22:36;;;;;;;0.82;0.10;;;;;;;;;;5008729;28;20041;-59